Hartland Corners, Vermont
Current Conditions -  °F | °C
As of 4:08 PM on Tuesday 27 Jan 2015 (Local Time) from KLEB Reporting Station
Light Snow Light Snow  
Wind Chill: -4°   Ceiling: 3100
Heat Index: 12°   Visibility: 4mi
Dew Point:   Wind: 15mph
Humidity: 61%   Direction: 350°N
Pressure: 29.71"   Gusts: 30mph
Location:  43.5466°N, 72.4252°W
Report Text: KLEB 272108Z 35013G26KT 4SM -SN BKN031 OVC039 M11/M17 A2971 RMK AO2 PK WND 32026/2059 SNB02 P0000 T11111172
Loading
Personal Weather Stations






























Interactive Weather Map New forecast layout! Learn more

10-Day Weather Forecast

Advertisements
Track Severe Weather on mobile